Time;durP1;ratioP1;P1;durP2;ratioP2;P2;SDS_P1;SDS_P2;PMS_P1;PMS_P2;Temp;Humidity;BMP_temperature;BMP_pressure;BME280_temperature;BME280_humidity;BME280_pressure;Samples;Min_cycle;Max_cycle;Signal;HPM_P1;HPM_P2
2024/04/19 00:00:58;;;;;;;4.30;2.30;;;7.60;99.90;;;;;;5491326;26;20749;-61
2024/04/19 00:03:26;;;;;;;3.97;1.90;;;7.60;99.90;;;;;;5490759;26;20221;-60
2024/04/19 00:05:52;;;;;;;6.22;1.80;;;7.50;99.90;;;;;;5491326;26;20450;-61
2024/04/19 00:08:21;;;;;;;5.90;2.00;;;7.50;99.90;;;;;;5491324;26;20659;-61
2024/04/19 00:10:49;;;;;;;3.55;2.15;;;7.50;99.90;;;;;;5493969;26;20284;-60
2024/04/19 00:13:17;;;;;;;6.53;2.30;;;7.50;99.90;;;;;;5494743;26;20269;-60
2024/04/19 00:15:43;;;;;;;5.68;1.85;;;7.50;99.90;;;;;;5490681;26;20302;-61
2024/04/19 00:18:12;;;;;;;5.17;1.73;;;7.50;99.90;;;;;;5490325;26;20212;-60
2024/04/19 00:20:39;;;;;;;5.43;2.05;;;7.60;99.90;;;;;;5490961;26;20442;-61
2024/04/19 00:23:07;;;;;;;4.05;1.73;;;7.60;99.90;;;;;;5490249;26;20260;-58
2024/04/19 00:25:34;;;;;;;3.80;2.05;;;7.60;99.90;;;;;;5490415;26;20313;-60
2024/04/19 00:28:05;;;;;;;4.70;1.50;;;7.60;99.90;;;;;;5490426;26;20344;-61
2024/04/19 00:30:31;;;;;;;3.78;1.80;;;7.60;99.90;;;;;;5493656;26;20707;-60
2024/04/19 00:33:00;;;;;;;4.57;2.40;;;7.60;99.90;;;;;;5493975;26;20312;-60
2024/04/19 00:35:25;;;;;;;3.92;1.90;;;7.60;99.90;;;;;;5493594;26;20506;-61
2024/04/19 00:37:54;;;;;;;5.30;1.77;;;7.60;99.90;;;;;;5493589;26;20293;-61
2024/04/19 00:40:20;;;;;;;2.75;1.67;;;7.60;99.90;;;;;;5493293;26;20212;-60
2024/04/19 00:42:51;;;;;;;5.93;1.90;;;7.60;99.90;;;;;;5493050;26;20760;-60
2024/04/19 00:45:36;;;;;;;3.88;1.85;;;7.60;99.90;;;;;;5493768;26;20201;-60
2024/04/19 00:48:06;;;;;;;3.15;2.05;;;7.50;99.90;;;;;;5493435;26;20750;-60
2024/04/19 00:50:36;;;;;;;3.63;1.90;;;7.50;99.90;;;;;;5493712;26;20259;-61
2024/04/19 00:53:03;;;;;;;3.50;1.60;;;7.50;99.90;;;;;;5493180;26;20244;-62
2024/04/19 00:55:32;;;;;;;2.97;1.60;;;7.50;99.90;;;;;;5493157;26;20213;-60
2024/04/19 00:57:59;;;;;;;2.50;1.58;;;7.50;99.90;;;;;;5493902;26;20229;-59
2024/04/19 01:00:31;;;;;;;4.80;1.75;;;7.50;99.90;;;;;;5493440;26;20276;-60
2024/04/19 01:02:57;;;;;;;3.05;1.98;;;7.50;99.90;;;;;;5493612;26;20217;-60
2024/04/19 01:05:26;;;;;;;5.30;2.13;;;7.50;99.90;;;;;;5493261;26;20220;-60
2024/04/19 01:07:52;;;;;;;6.35;2.50;;;7.50;99.90;;;;;;5493120;26;20272;-61
2024/04/19 01:10:21;;;;;;;7.40;1.80;;;7.50;99.90;;;;;;5493045;26;20829;-61
2024/04/19 01:12:47;;;;;;;4.30;2.25;;;7.50;99.90;;;;;;5493147;26;20329;-60
2024/04/19 01:15:18;;;;;;;2.33;1.70;;;7.50;99.90;;;;;;5493580;26;20690;-60
2024/04/19 01:17:47;;;;;;;2.15;1.65;;;7.50;99.90;;;;;;5493488;26;20216;-60
2024/04/19 01:20:15;;;;;;;5.03;2.65;;;7.50;99.90;;;;;;5492888;26;20209;-61
2024/04/19 01:22:42;;;;;;;3.25;1.70;;;7.50;99.90;;;;;;5492898;26;20341;-60
2024/04/19 01:25:14;;;;;;;3.55;1.75;;;7.50;99.90;;;;;;5493171;26;20321;-61
2024/04/19 01:27:42;;;;;;;7.32;2.55;;;7.50;99.90;;;;;;5492942;26;20552;-60
2024/04/19 01:30:12;;;;;;;4.57;2.72;;;7.60;99.90;;;;;;5498910;26;20209;-60
2024/04/19 01:32:37;;;;;;;2.55;1.95;;;7.60;99.90;;;;;;5502184;26;20289;-60
2024/04/19 01:35:06;;;;;;;6.10;2.00;;;7.60;99.90;;;;;;5501172;26;20559;-61
2024/04/19 01:37:32;;;;;;;5.15;1.90;;;7.60;99.90;;;;;;5496802;26;20252;-61
2024/04/19 01:40:00;;;;;;;6.83;1.90;;;7.60;99.90;;;;;;5493882;26;20225;-60
2024/04/19 01:42:26;;;;;;;4.47;2.33;;;7.60;99.90;;;;;;5493598;26;20322;-60
2024/04/19 01:44:58;;;;;;;3.93;2.33;;;7.60;99.90;;;;;;5493258;26;20221;-61
2024/04/19 01:47:24;;;;;;;5.40;2.58;;;7.60;99.90;;;;;;5492697;26;20244;-61
2024/04/19 01:49:52;;;;;;;2.43;2.00;;;7.60;99.90;;;;;;5492705;26;20564;-60
2024/04/19 01:52:18;;;;;;;7.82;2.45;;;7.60;99.90;;;;;;5492457;26;20580;-60
2024/04/19 01:54:46;;;;;;;3.80;2.10;;;7.60;99.90;;;;;;5492736;26;20252;-60
2024/04/19 01:57:12;;;;;;;2.20;1.92;;;7.60;99.80;;;;;;5492249;26;20264;-61
2024/04/19 01:59:41;;;;;;;3.10;2.23;;;7.60;99.60;;;;;;5492682;26;20321;-60
2024/04/19 02:02:09;;;;;;;3.28;2.20;;;7.50;99.30;;;;;;5492722;26;20265;-60
2024/04/19 02:04:37;;;;;;;3.05;2.75;;;7.50;99.50;;;;;;5492821;26;20256;-60
2024/04/19 02:07:03;;;;;;;3.58;1.92;;;7.40;99.60;;;;;;5492415;26;20268;-60
2024/04/19 02:09:34;;;;;;;2.57;2.30;;;7.40;99.70;;;;;;5492233;26;20682;-60
2024/04/19 02:12:00;;;;;;;4.82;2.72;;;7.30;99.90;;;;;;5492682;26;20462;-60
2024/04/19 02:14:30;;;;;;;3.13;2.33;;;7.10;99.90;;;;;;5492462;26;20301;-60
2024/04/19 02:16:56;;;;;;;3.00;2.70;;;7.00;99.90;;;;;;5492056;26;20505;-60
2024/04/19 02:19:29;;;;;;;3.75;2.58;;;6.80;99.90;;;;;;5502587;26;20269;-60
2024/04/19 02:21:55;;;;;;;4.70;2.90;;;6.50;99.90;;;;;;5508428;26;20240;-60
2024/04/19 02:24:23;;;;;;;4.93;2.47;;;6.40;99.90;;;;;;5497341;26;20217;-60
2024/04/19 02:26:52;;;;;;;5.00;2.70;;;6.20;99.90;;;;;;5492364;26;20676;-61
2024/04/19 02:32:05;;;;;;;5.57;3.47;;;6.00;99.90;;;;;;5494698;26;20243;-61
2024/04/19 02:34:36;;;;;;;5.95;3.40;;;5.90;99.90;;;;;;5492003;26;20750;-60
2024/04/19 02:37:02;;;;;;;6.85;3.25;;;5.80;99.90;;;;;;5491680;26;20365;-60
2024/04/19 02:39:31;;;;;;;4.93;3.20;;;5.80;99.90;;;;;;5492006;26;20213;-60
2024/04/19 02:41:57;;;;;;;3.55;3.25;;;5.70;99.90;;;;;;5494476;26;20229;-60
2024/04/19 02:44:25;;;;;;;6.00;3.50;;;5.70;99.90;;;;;;5498904;26;20286;-60
2024/04/19 02:46:53;;;;;;;7.55;4.45;;;5.60;99.90;;;;;;5500038;26;20264;-60
2024/04/19 02:49:22;;;;;;;8.77;4.43;;;5.60;99.90;;;;;;5496657;26;20299;-60
2024/04/19 02:51:53;;;;;;;7.97;4.95;;;5.60;99.90;;;;;;5494323;26;20268;-60
2024/04/19 02:54:21;;;;;;;8.20;5.00;;;5.60;99.90;;;;;;5495230;26;20301;-60
2024/04/19 02:56:49;;;;;;;8.00;5.70;;;5.60;99.90;;;;;;5493250;26;20316;-61
2024/04/19 02:59:18;;;;;;;7.82;4.90;;;5.50;99.90;;;;;;5492962;26;20221;-60
2024/04/19 03:01:47;;;;;;;10.38;5.43;;;5.50;99.90;;;;;;5492138;26;20213;-59
2024/04/19 03:04:12;;;;;;;8.52;5.25;;;5.50;99.90;;;;;;5493993;26;20299;-60
2024/04/19 03:06:41;;;;;;;6.43;4.30;;;5.50;99.90;;;;;;5495231;26;20213;-60
2024/04/19 03:09:12;;;;;;;11.00;4.90;;;5.50;99.90;;;;;;5494860;26;20497;-60
2024/04/19 03:11:40;;;;;;;9.30;5.85;;;5.50;99.90;;;;;;5495872;26;20277;-59
2024/04/19 03:14:09;;;;;;;5.97;5.38;;;5.50;99.90;;;;;;5500298;26;20326;-59
2024/04/19 03:16:37;;;;;;;8.20;5.55;;;5.50;99.90;;;;;;5501825;26;20217;-59
2024/04/19 03:19:06;;;;;;;6.75;6.15;;;5.40;99.90;;;;;;5501934;26;20282;-60
2024/04/19 03:21:35;;;;;;;6.45;5.60;;;5.40;99.90;;;;;;5502404;26;20264;-59
2024/04/19 03:24:03;;;;;;;7.50;5.72;;;5.40;99.90;;;;;;5503932;26;20240;-60
2024/04/19 03:26:34;;;;;;;7.75;6.47;;;5.40;99.90;;;;;;5503567;26;20303;-60
2024/04/19 03:29:03;;;;;;;8.35;6.50;;;5.30;99.90;;;;;;5502129;26;20409;-59
2024/04/19 03:31:31;;;;;;;7.20;5.85;;;5.30;99.90;;;;;;5504366;26;20213;-59
2024/04/19 03:33:59;;;;;;;11.68;7.28;;;5.30;99.90;;;;;;5504007;26;20284;-59
2024/04/19 03:36:28;;;;;;;7.68;6.90;;;5.20;99.90;;;;;;5491681;26;20269;-60
2024/04/19 03:38:56;;;;;;;9.43;8.20;;;5.20;99.90;;;;;;5491600;26;20260;-60
2024/04/19 03:41:25;;;;;;;8.00;6.93;;;5.20;99.90;;;;;;5491034;26;20243;-60
2024/04/19 03:46:36;;;;;;;8.15;7.35;;;5.20;99.90;;;;;;5489500;26;20308;-59
2024/04/19 03:49:05;;;;;;;8.35;7.55;;;5.20;99.90;;;;;;5491086;26;20301;-60
2024/04/19 03:51:33;;;;;;;8.50;7.70;;;5.10;99.90;;;;;;5492390;26;20312;-59
2024/04/19 03:54:02;;;;;;;8.95;8.07;;;5.10;99.90;;;;;;5492791;26;20240;-59
2024/04/19 03:56:30;;;;;;;9.30;8.40;;;5.10;99.90;;;;;;5493083;26;20251;-59
2024/04/19 03:59:01;;;;;;;10.10;9.20;;;5.10;99.90;;;;;;5501494;26;20330;-59
2024/04/19 04:01:30;;;;;;;9.30;8.07;;;5.00;99.90;;;;;;5496587;26;20258;-59
2024/04/19 04:03:59;;;;;;;9.95;8.95;;;5.00;99.90;;;;;;5490209;26;20670;-60
2024/04/19 04:06:27;;;;;;;11.00;9.57;;;5.00;99.90;;;;;;5496495;26;20250;-59
2024/04/19 04:08:56;;;;;;;9.75;8.73;;;5.00;99.90;;;;;;5500040;26;20220;-59
2024/04/19 04:13:41;;;;;;;10.63;9.25;;;4.90;99.90;;;;;;5559861;25;20577;-59
2024/04/19 04:16:10;;;;;;;9.82;8.82;;;4.90;99.90;;;;;;5549765;25;20212;-61
2024/04/19 04:18:39;;;;;;;9.77;8.77;;;4.90;99.90;;;;;;5547742;25;20211;-59
2024/04/19 04:21:07;;;;;;;9.55;8.65;;;4.90;99.90;;;;;;5546773;25;20267;-59
2024/04/19 04:23:36;;;;;;;10.40;9.30;;;4.90;99.90;;;;;;5546501;25;20268;-60
2024/04/19 04:26:04;;;;;;;11.60;9.38;;;4.90;99.90;;;;;;5546739;25;20333;-59
2024/04/19 04:28:33;;;;;;;9.73;8.60;;;4.90;99.90;;;;;;5546716;25;20219;-59
2024/04/19 04:31:04;;;;;;;7.60;6.80;;;4.90;99.90;;;;;;5547039;25;20223;-59
2024/04/19 04:33:32;;;;;;;7.47;6.78;;;4.90;99.90;;;;;;5546564;25;20242;-60
2024/04/19 04:36:01;;;;;;;8.65;7.75;;;4.90;99.90;;;;;;5546815;25;20223;-59
2024/04/19 04:38:29;;;;;;;7.50;6.80;;;4.90;99.90;;;;;;5546809;25;20220;-59
2024/04/19 04:40:57;;;;;;;6.78;5.97;;;4.90;99.90;;;;;;5546934;25;20250;-59
2024/04/19 04:43:26;;;;;;;6.40;5.78;;;4.90;99.90;;;;;;5546253;25;20799;-59
2024/04/19 04:45:54;;;;;;;8.30;6.10;;;4.90;99.90;;;;;;5546259;25;20648;-59
2024/04/19 04:48:25;;;;;;;6.03;5.43;;;4.90;99.90;;;;;;5546082;25;20324;-59
2024/04/19 04:50:54;;;;;;;5.40;4.90;;;4.90;99.90;;;;;;5553391;25;20223;-58
2024/04/19 04:53:22;;;;;;;5.95;5.45;;;4.90;99.90;;;;;;5558971;25;20256;-58
2024/04/19 04:55:52;;;;;;;5.45;4.95;;;4.90;99.90;;;;;;5553169;25;20223;-59
2024/04/19 04:58:20;;;;;;;6.13;5.63;;;5.00;99.90;;;;;;5548089;25;20219;-58
2024/04/19 05:00:49;;;;;;;6.00;5.50;;;4.90;99.90;;;;;;5545788;25;20258;-60
2024/04/19 05:03:17;;;;;;;6.47;5.60;;;5.00;99.90;;;;;;5546401;25;20250;-59
2024/04/19 05:05:46;;;;;;;4.55;4.15;;;5.00;99.90;;;;;;5545975;25;20271;-59
2024/04/19 05:08:14;;;;;;;5.68;5.13;;;5.00;99.90;;;;;;5546724;25;20275;-59
2024/04/19 05:10:43;;;;;;;5.82;4.63;;;5.00;99.90;;;;;;5546453;25;20254;-59
2024/04/19 05:13:11;;;;;;;4.95;4.55;;;4.90;99.90;;;;;;5546361;25;20311;-59
2024/04/19 05:15:39;;;;;;;5.53;5.00;;;4.90;99.90;;;;;;5546393;25;20211;-59
2024/04/19 05:18:08;;;;;;;4.50;4.10;;;4.90;99.90;;;;;;5549086;25;20219;-60
2024/04/19 05:20:36;;;;;;;5.15;4.65;;;4.90;99.90;;;;;;5547282;25;20338;-59
2024/04/19 05:23:07;;;;;;;5.25;4.75;;;4.90;99.90;;;;;;5544064;25;20262;-58
2024/04/19 05:25:38;;;;;;;5.40;4.43;;;4.90;99.90;;;;;;5535694;25;20208;-59
2024/04/19 05:28:07;;;;;;;7.90;5.00;;;5.00;99.90;;;;;;5536383;26;20209;-58
2024/04/19 05:30:35;;;;;;;5.35;4.82;;;5.00;99.90;;;;;;5534360;25;20237;-59
2024/04/19 05:33:05;;;;;;;4.68;4.10;;;5.00;99.90;;;;;;5533436;25;20313;-59
2024/04/19 05:35:34;;;;;;;4.40;4.00;;;5.00;99.90;;;;;;5531839;26;20200;-58
2024/04/19 05:38:03;;;;;;;5.95;4.00;;;5.00;99.90;;;;;;5531457;26;20330;-59
2024/04/19 05:40:34;;;;;;;4.03;3.63;;;5.00;99.90;;;;;;5531423;26;20664;-60
2024/04/19 05:43:03;;;;;;;5.32;3.63;;;5.00;99.90;;;;;;5530874;25;20219;-59
2024/04/19 05:45:31;;;;;;;5.05;4.55;;;5.00;99.90;;;;;;5530356;26;20318;-59
2024/04/19 05:47:57;;;;;;;5.57;4.05;;;5.00;99.90;;;;;;5530659;26;20263;-60
2024/04/19 05:50:25;;;;;;;3.73;3.17;;;5.10;99.90;;;;;;5530779;26;20212;-60
2024/04/19 05:52:54;;;;;;;4.78;3.80;;;5.10;99.90;;;;;;5531735;25;20318;-59
2024/04/19 05:55:22;;;;;;;4.75;3.35;;;5.10;99.90;;;;;;5531003;25;20216;-59
2024/04/19 05:57:53;;;;;;;3.72;3.42;;;5.10;99.90;;;;;;5530609;26;20208;-60
2024/04/19 06:00:22;;;;;;;3.85;3.35;;;5.00;99.90;;;;;;5529974;26;20231;-59
2024/04/19 06:02:50;;;;;;;3.50;3.20;;;5.00;99.90;;;;;;5531837;25;20748;-59
2024/04/19 06:05:19;;;;;;;3.45;3.17;;;5.00;99.90;;;;;;5530475;26;20256;-59
2024/04/19 06:07:48;;;;;;;3.05;2.80;;;5.00;99.90;;;;;;5530483;26;20786;-59
2024/04/19 06:10:16;;;;;;;3.10;2.80;;;5.00;99.90;;;;;;5530168;26;20556;-59
2024/04/19 06:12:45;;;;;;;3.60;3.30;;;5.00;99.90;;;;;;5530170;25;20274;-59
2024/04/19 06:15:16;;;;;;;2.95;2.75;;;5.00;99.90;;;;;;5531192;26;20260;-60
2024/04/19 06:17:44;;;;;;;2.83;2.58;;;5.10;99.90;;;;;;5530294;26;20340;-59
2024/04/19 06:20:12;;;;;;;2.40;2.22;;;5.10;99.90;;;;;;5530072;26;20259;-58
2024/04/19 06:22:41;;;;;;;3.40;3.10;;;5.10;99.90;;;;;;5530233;25;20260;-59
2024/04/19 06:25:10;;;;;;;2.45;2.25;;;5.10;99.90;;;;;;5530211;26;20293;-59
2024/04/19 06:27:39;;;;;;;3.03;2.83;;;5.20;99.90;;;;;;5530490;26;20690;-59
2024/04/19 06:30:08;;;;;;;2.70;2.50;;;5.10;99.90;;;;;;5529293;26;20247;-59
2024/04/19 06:32:39;;;;;;;3.30;3.00;;;5.10;99.90;;;;;;5529114;25;20335;-60
2024/04/19 06:35:09;;;;;;;2.78;2.50;;;5.20;99.90;;;;;;5527760;26;20690;-59
2024/04/19 06:37:37;;;;;;;2.60;2.40;;;5.20;99.90;;;;;;5529830;26;20704;-59
2024/04/19 06:40:07;;;;;;;2.45;2.25;;;5.30;99.90;;;;;;5530966;26;20253;-59
2024/04/19 06:42:36;;;;;;;3.85;3.00;;;5.30;99.90;;;;;;5530857;25;20714;-59
2024/04/19 06:45:04;;;;;;;4.38;2.75;;;5.30;99.90;;;;;;5530837;26;20333;-59
2024/04/19 06:47:34;;;;;;;3.75;2.78;;;5.40;99.90;;;;;;5531203;26;20212;-60
2024/04/19 06:50:06;;;;;;;2.50;2.30;;;5.40;99.90;;;;;;5536108;26;20634;-59
2024/04/19 06:52:34;;;;;;;2.80;2.60;;;5.40;99.90;;;;;;5538612;25;20232;-59
2024/04/19 06:55:03;;;;;;;2.47;2.28;;;5.50;99.90;;;;;;5539455;26;20211;-60
2024/04/19 06:57:31;;;;;;;2.75;2.55;;;5.50;99.90;;;;;;5537931;26;20220;-59
2024/04/19 07:00:01;;;;;;;2.83;2.63;;;5.50;99.90;;;;;;5536744;26;20220;-59
2024/04/19 07:02:29;;;;;;;3.42;3.13;;;5.50;99.90;;;;;;5536285;25;20284;-58
2024/04/19 07:04:57;;;;;;;2.92;2.72;;;5.60;99.90;;;;;;5537113;26;20271;-59
2024/04/19 07:07:28;;;;;;;2.95;2.75;;;5.60;99.90;;;;;;5536755;26;20302;-59
2024/04/19 07:09:54;;;;;;;2.85;2.58;;;5.70;99.90;;;;;;5535709;26;20211;-60
2024/04/19 07:12:22;;;;;;;2.50;2.30;;;5.70;99.90;;;;;;5534824;25;20232;-59
2024/04/19 07:14:51;;;;;;;2.47;2.28;;;5.70;99.90;;;;;;5535900;26;20244;-59
2024/04/19 07:17:19;;;;;;;2.63;2.10;;;5.70;99.90;;;;;;5533453;26;20208;-60
2024/04/19 07:19:48;;;;;;;2.25;2.10;;;5.70;99.90;;;;;;5532926;26;20311;-60
2024/04/19 07:22:17;;;;;;;3.22;2.47;;;5.70;99.90;;;;;;5533045;25;20263;-59
2024/04/19 07:24:48;;;;;;;1.77;1.67;;;5.70;99.90;;;;;;5534794;25;20212;-58
2024/04/19 07:27:17;;;;;;;2.13;1.50;;;5.70;99.90;;;;;;5536614;25;20734;-60
2024/04/19 07:29:45;;;;;;;2.45;1.35;;;5.70;99.90;;;;;;5536395;26;20299;-59
2024/04/19 07:32:14;;;;;;;2.28;2.00;;;5.70;99.90;;;;;;5532643;25;20319;-60
2024/04/19 07:34:42;;;;;;;2.20;2.00;;;5.80;99.90;;;;;;5532672;26;20220;-60
2024/04/19 07:37:10;;;;;;;2.38;1.77;;;5.80;99.90;;;;;;5531711;26;20208;-59
2024/04/19 07:39:39;;;;;;;2.92;1.67;;;5.80;99.90;;;;;;5529806;26;20257;-60
2024/04/19 07:42:10;;;;;;;2.10;2.00;;;5.80;99.90;;;;;;5530615;25;20281;-60
2024/04/19 07:44:39;;;;;;;1.98;1.75;;;5.80;99.90;;;;;;5530030;26;20337;-59
2024/04/19 07:47:08;;;;;;;1.85;1.63;;;5.90;99.90;;;;;;5529201;26;20234;-59
2024/04/19 07:49:36;;;;;;;3.38;1.95;;;5.90;99.90;;;;;;5532469;26;20212;-60
2024/04/19 07:52:05;;;;;;;1.60;1.50;;;6.00;99.90;;;;;;5533423;25;20220;-59
2024/04/19 07:54:33;;;;;;;1.42;1.33;;;6.00;99.90;;;;;;5531381;26;20660;-58
2024/04/19 07:57:02;;;;;;;2.00;1.80;;;6.00;99.90;;;;;;5530648;26;20237;-59
2024/04/19 07:59:33;;;;;;;2.13;1.45;;;6.00;99.90;;;;;;5528858;26;20267;-60
2024/04/19 08:02:01;;;;;;;1.85;1.67;;;6.00;99.90;;;;;;5529393;25;20329;-59
2024/04/19 08:04:29;;;;;;;2.10;1.90;;;6.00;99.90;;;;;;5528486;26;20292;-60
2024/04/19 08:06:58;;;;;;;2.30;2.10;;;6.10;99.90;;;;;;5528906;26;20220;-59
2024/04/19 08:09:26;;;;;;;2.50;2.30;;;6.20;99.90;;;;;;5526997;26;20791;-59
2024/04/19 08:11:55;;;;;;;2.70;2.50;;;6.30;99.90;;;;;;5528486;25;20268;-57
2024/04/19 08:14:20;;;;;;;4.28;2.08;;;6.40;99.90;;;;;;5527145;26;20257;-59
2024/04/19 08:16:51;;;;;;;2.03;1.87;;;6.50;99.90;;;;;;5528249;26;20804;-59
2024/04/19 08:19:20;;;;;;;2.58;2.38;;;6.60;99.90;;;;;;5526521;26;20597;-60
2024/04/19 08:21:48;;;;;;;2.00;1.80;;;6.70;99.90;;;;;;5527268;25;20504;-59
2024/04/19 08:24:16;;;;;;;2.42;2.22;;;6.90;99.90;;;;;;5526881;26;20272;-59
2024/04/19 08:26:45;;;;;;;2.00;1.80;;;7.10;99.90;;;;;;5528198;26;20329;-60
2024/04/19 08:29:13;;;;;;;2.10;1.90;;;7.20;99.90;;;;;;5528461;26;20329;-58
2024/04/19 08:31:42;;;;;;;1.83;1.73;;;7.40;99.90;;;;;;5529108;25;20610;-61
2024/04/19 08:34:13;;;;;;;2.08;1.88;;;7.50;99.90;;;;;;5528404;26;20618;-59
2024/04/19 08:36:39;;;;;;;1.80;1.63;;;7.60;99.90;;;;;;5529235;26;20204;-59
2024/04/19 08:39:08;;;;;;;2.67;2.47;;;7.80;99.90;;;;;;5528505;26;20220;-59
2024/04/19 08:41:36;;;;;;;2.63;2.28;;;8.00;99.90;;;;;;5528177;26;20212;-60
2024/04/19 08:44:06;;;;;;;1.73;1.63;;;8.10;99.90;;;;;;5528761;25;20564;-59
2024/04/19 08:46:37;;;;;;;1.75;1.65;;;8.20;99.90;;;;;;5528280;26;20224;-59
2024/04/19 08:49:06;;;;;;;2.30;2.10;;;8.30;99.90;;;;;;5531851;26;20240;-59
2024/04/19 08:51:39;;;;;;;2.80;2.60;;;8.40;99.90;;;;;;5530320;26;20735;-58
2024/04/19 08:54:07;;;;;;;1.75;1.60;;;8.30;99.90;;;;;;5530928;25;20709;-59
2024/04/19 08:56:38;;;;;;;2.47;2.28;;;8.30;99.90;;;;;;5529269;26;20762;-59
2024/04/19 08:59:07;;;;;;;2.72;2.53;;;8.30;99.90;;;;;;5531475;26;20307;-60
2024/04/19 09:01:36;;;;;;;3.28;2.08;;;8.20;99.90;;;;;;5534553;26;20304;-59
2024/04/19 09:04:04;;;;;;;2.50;2.10;;;8.20;99.90;;;;;;5534242;25;20339;-59
2024/04/19 09:06:33;;;;;;;2.40;2.20;;;8.20;99.90;;;;;;5532093;26;20275;-60
2024/04/19 09:09:05;;;;;;;2.47;2.28;;;8.30;99.90;;;;;;5531854;26;20549;-59
2024/04/19 09:11:33;;;;;;;2.03;1.90;;;8.40;99.90;;;;;;5530112;26;20257;-59
2024/04/19 09:14:02;;;;;;;3.92;2.10;;;8.50;99.90;;;;;;5530265;25;20226;-60
2024/04/19 09:16:33;;;;;;;3.30;2.22;;;8.70;99.90;;;;;;5530321;26;20338;-59
2024/04/19 09:19:02;;;;;;;2.97;2.70;;;8.90;99.90;;;;;;5531059;26;20323;-60
2024/04/19 09:21:30;;;;;;;3.23;2.60;;;9.20;99.90;;;;;;5530109;26;20560;-59
2024/04/19 09:23:58;;;;;;;2.40;2.30;;;9.50;99.90;;;;;;5531403;25;20599;-60
2024/04/19 09:26:29;;;;;;;2.27;2.07;;;9.70;99.90;;;;;;5530765;26;20523;-60
2024/04/19 09:28:58;;;;;;;5.63;2.30;;;9.80;99.90;;;;;;5531682;25;20571;-59
2024/04/19 09:31:26;;;;;;;2.20;2.00;;;10.00;99.90;;;;;;5530256;26;20588;-59
2024/04/19 09:33:57;;;;;;;2.03;1.83;;;10.10;99.90;;;;;;5530865;25;20654;-60
2024/04/19 09:36:26;;;;;;;2.77;2.00;;;10.20;99.90;;;;;;5533898;26;20882;-60
2024/04/19 09:38:52;;;;;;;2.57;2.07;;;10.30;99.90;;;;;;5537400;26;20507;-59
2024/04/19 09:41:21;;;;;;;3.30;2.07;;;10.50;99.90;;;;;;5538594;26;20442;-60
2024/04/19 09:43:55;;;;;;;2.63;2.10;;;10.80;99.90;;;;;;5534360;25;20470;-59
2024/04/19 09:46:28;;;;;;;4.30;2.23;;;11.10;99.90;;;;;;5533094;26;20499;-60
2024/04/19 09:49:01;;;;;;;2.23;2.03;;;11.30;99.90;;;;;;5531365;26;20572;-59
2024/04/19 09:51:36;;;;;;;2.43;1.87;;;11.60;99.90;;;;;;5531611;26;20522;-60
2024/04/19 09:54:08;;;;;;;2.60;1.93;;;11.70;99.90;;;;;;5530157;25;20528;-60
2024/04/19 09:56:42;;;;;;;3.60;2.30;;;11.70;99.90;;;;;;5534554;26;20497;-60
2024/04/19 09:59:15;;;;;;;9.30;2.60;;;11.30;99.90;;;;;;5537951;26;20502;-60
2024/04/19 10:01:44;;;;;;;2.37;1.73;;;10.80;99.90;;;;;;5532058;25;20505;-61
2024/04/19 10:04:14;;;;;;;2.17;1.90;;;10.30;99.90;;;;;;5531341;26;20557;-60
2024/04/19 10:06:43;;;;;;;2.50;2.10;;;10.00;99.90;;;;;;5530939;26;21011;-59
2024/04/19 10:09:13;;;;;;;3.60;2.20;;;9.70;99.90;;;;;;5531648;26;20559;-59
2024/04/19 10:11:43;;;;;;;2.70;2.37;;;9.50;99.90;;;;;;5531784;25;20514;-62
2024/04/19 10:14:14;;;;;;;3.95;2.10;;;9.40;99.90;;;;;;5532773;26;20461;-60
2024/04/19 10:16:43;;;;;;;3.20;2.20;;;9.20;99.90;;;;;;5531711;26;20206;-59
2024/04/19 10:19:14;;;;;;;2.17;2.08;;;9.10;99.90;;;;;;5533080;26;20564;-59
2024/04/19 10:21:42;;;;;;;6.00;2.65;;;9.00;99.90;;;;;;5532242;25;20244;-60
2024/04/19 10:24:17;;;;;;;2.33;1.75;;;8.90;99.90;;;;;;5531748;26;20646;-59
2024/04/19 10:26:47;;;;;;;6.60;2.92;;;8.80;99.90;;;;;;5533623;26;20204;-60
2024/04/19 10:29:20;;;;;;;2.95;1.83;;;8.80;99.90;;;;;;5534177;25;20212;-59
2024/04/19 10:31:49;;;;;;;2.47;2.17;;;8.70;99.90;;;;;;5533139;25;20709;-59
2024/04/19 10:34:21;;;;;;;2.95;2.10;;;8.60;99.90;;;;;;5534451;26;20224;-59
2024/04/19 10:36:49;;;;;;;3.45;2.70;;;8.50;99.90;;;;;;5538753;26;20333;-61
2024/04/19 10:39:15;;;;;;;5.35;2.92;;;8.60;99.90;;;;;;5537275;26;20319;-60
2024/04/19 10:41:49;;;;;;;5.22;3.47;;;8.70;99.90;;;;;;5537627;25;20221;-60
2024/04/19 10:44:20;;;;;;;5.03;3.35;;;8.80;99.90;;;;;;5538008;26;20204;-60
2024/04/19 10:46:51;;;;;;;6.35;4.30;;;9.00;99.90;;;;;;5540828;26;20300;-60
2024/04/19 10:49:20;;;;;;;4.55;3.65;;;9.30;99.90;;;;;;5536969;26;20248;-61
2024/04/19 10:51:50;;;;;;;5.40;2.40;;;9.70;99.90;;;;;;5534967;25;20217;-61
2024/04/19 10:54:18;;;;;;;5.00;3.27;;;10.00;99.90;;;;;;5531249;26;20444;-59
2024/04/19 10:56:47;;;;;;;3.63;2.23;;;10.10;99.90;;;;;;5530520;26;20458;-60
2024/04/19 10:59:15;;;;;;;6.40;2.40;;;10.20;99.90;;;;;;5530802;26;20508;-60
2024/04/19 11:01:47;;;;;;;4.60;2.40;;;10.10;99.90;;;;;;5530383;25;20556;-60
2024/04/19 11:04:15;;;;;;;3.38;1.55;;;10.10;99.90;;;;;;5530360;25;21010;-59
2024/04/19 11:06:44;;;;;;;2.63;1.60;;;9.90;99.90;;;;;;5530300;26;20248;-59
2024/04/19 11:09:12;;;;;;;2.63;2.10;;;9.70;99.90;;;;;;5530581;26;20516;-60
2024/04/19 11:11:42;;;;;;;5.07;2.23;;;9.60;99.90;;;;;;5531369;26;20457;-59
2024/04/19 11:14:11;;;;;;;3.65;1.67;;;9.40;99.90;;;;;;5531255;26;20462;-60
2024/04/19 11:16:39;;;;;;;5.03;1.60;;;9.30;99.90;;;;;;5532347;26;20311;-59
2024/04/19 11:19:10;;;;;;;2.30;1.45;;;9.00;99.90;;;;;;5532973;25;20247;-60
2024/04/19 11:21:39;;;;;;;1.75;1.38;;;8.70;99.90;;;;;;5532484;26;20208;-59
2024/04/19 11:24:07;;;;;;;2.35;1.85;;;8.60;99.90;;;;;;5532254;26;20228;-60
2024/04/19 11:26:36;;;;;;;3.50;1.75;;;8.60;99.90;;;;;;5531586;26;20260;-60
2024/04/19 11:29:04;;;;;;;4.55;1.80;;;8.70;99.90;;;;;;5531497;26;20762;-60
2024/04/19 11:31:34;;;;;;;4.10;1.83;;;8.90;99.90;;;;;;5532449;26;20371;-59
2024/04/19 11:34:03;;;;;;;4.15;1.70;;;9.20;99.90;;;;;;5533963;25;20221;-60
2024/04/19 11:36:36;;;;;;;4.40;1.50;;;9.40;99.90;;;;;;5533180;26;20307;-60
2024/04/19 11:39:04;;;;;;;3.00;1.93;;;9.80;99.90;;;;;;5531666;25;20499;-60
2024/04/19 11:41:33;;;;;;;5.77;2.23;;;10.00;99.90;;;;;;5533240;26;20448;-59
2024/04/19 11:44:04;;;;;;;2.75;1.60;;;10.10;99.90;;;;;;5530884;25;20528;-64
2024/04/19 11:46:33;;;;;;;3.83;1.30;;;10.30;99.90;;;;;;5530934;26;20210;-58
2024/04/19 11:49:03;;;;;;;5.80;1.90;;;10.60;99.90;;;;;;5529584;26;20505;-60
2024/04/19 11:51:36;;;;;;;4.93;1.77;;;11.00;99.90;;;;;;5530330;26;20449;-59
2024/04/19 11:54:04;;;;;;;3.17;1.80;;;11.70;99.90;;;;;;5529450;25;21042;-59
2024/04/19 11:56:32;;;;;;;4.40;1.97;;;12.30;99.90;;;;;;5531770;26;20450;-60
2024/04/19 11:59:01;;;;;;;3.37;1.83;;;12.60;99.90;;;;;;5533047;26;20554;-59
2024/04/19 12:01:29;;;;;;;3.53;1.90;;;12.40;99.90;;;;;;5532727;26;20454;-60
2024/04/19 12:03:58;;;;;;;2.53;1.23;;;12.20;99.90;;;;;;5533552;25;20462;-60
2024/04/19 12:06:26;;;;;;;3.07;1.57;;;12.00;99.90;;;;;;5533510;26;20459;-60
2024/04/19 12:08:57;;;;;;;6.90;2.47;;;11.90;99.90;;;;;;5531155;26;21126;-60
2024/04/19 12:11:26;;;;;;;2.03;1.20;;;11.90;99.90;;;;;;5530642;26;20469;-60
2024/04/19 12:13:54;;;;;;;8.50;1.70;;;11.80;99.90;;;;;;5530239;25;20534;-57
2024/04/19 12:16:23;;;;;;;2.33;2.00;;;11.80;99.90;;;;;;5531393;26;20454;-61
2024/04/19 12:18:51;;;;;;;3.20;1.87;;;11.70;99.90;;;;;;5531178;26;20537;-59
2024/04/19 12:21:20;;;;;;;3.90;1.73;;;11.30;99.90;;;;;;5530783;26;20506;-59
2024/04/19 12:23:48;;;;;;;3.37;1.80;;;10.70;99.90;;;;;;5530759;25;20998;-59
2024/04/19 12:26:19;;;;;;;2.60;1.67;;;10.00;99.90;;;;;;5530137;26;20450;-59
2024/04/19 12:28:48;;;;;;;1.98;1.40;;;9.40;99.90;;;;;;5532513;26;20867;-59
2024/04/19 12:31:16;;;;;;;2.70;1.60;;;8.90;99.90;;;;;;5535493;26;20589;-60
2024/04/19 12:33:45;;;;;;;1.25;1.13;;;8.40;99.90;;;;;;5536147;25;20237;-60
2024/04/19 12:36:13;;;;;;;1.42;0.90;;;8.10;99.90;;;;;;5537646;26;20248;-60
2024/04/19 12:38:41;;;;;;;1.20;1.10;;;7.90;99.90;;;;;;5535429;26;20216;-60
2024/04/19 12:41:10;;;;;;;1.65;1.20;;;7.80;99.90;;;;;;5533029;26;20221;-60
2024/04/19 12:43:41;;;;;;;2.35;1.13;;;7.90;99.90;;;;;;5533230;25;20240;-60
2024/04/19 12:46:10;;;;;;;2.10;1.40;;;8.00;99.90;;;;;;5532448;26;20208;-59
2024/04/19 12:48:38;;;;;;;1.35;1.10;;;8.00;99.90;;;;;;5533100;26;20243;-59
2024/04/19 12:51:07;;;;;;;3.35;1.00;;;8.10;99.90;;;;;;5533538;26;20264;-59
2024/04/19 12:53:35;;;;;;;2.30;1.40;;;8.20;99.90;;;;;;5533133;25;20272;-60
2024/04/19 12:56:05;;;;;;;3.22;1.40;;;8.30;99.90;;;;;;5533233;26;20267;-60
2024/04/19 12:58:34;;;;;;;4.32;1.30;;;8.40;99.90;;;;;;5532484;26;20285;-59
2024/04/19 13:01:05;;;;;;;1.60;1.10;;;8.50;99.90;;;;;;5532760;26;20843;-60
2024/04/19 13:03:34;;;;;;;1.77;1.20;;;8.60;99.90;;;;;;5533601;25;20224;-59
2024/04/19 13:06:02;;;;;;;1.55;1.25;;;8.70;99.90;;;;;;5534101;26;20221;-60
2024/04/19 13:08:31;;;;;;;1.60;1.10;;;8.80;99.90;;;;;;5532616;26;20298;-60
2024/04/19 13:10:59;;;;;;;2.38;1.15;;;9.00;99.90;;;;;;5532755;26;20264;-59